sensor_id;sensor_type;location;lat;lon;timestamp;P1;durP1;ratioP1;P2;durP2;ratioP2
14584;SDS011;7379;51.506;11.876;2022-12-20T00:01:19;15.83;;;11.17;;
14584;SDS011;7379;51.506;11.876;2022-12-20T00:03:48;17.30;;;11.27;;
14584;SDS011;7379;51.506;11.876;2022-12-20T00:06:16;17.83;;;11.00;;
14584;SDS011;7379;51.506;11.876;2022-12-20T00:08:44;17.87;;;11.17;;
14584;SDS011;7379;51.506;11.876;2022-12-20T00:11:11;15.30;;;10.83;;
14584;SDS011;7379;51.506;11.876;2022-12-20T00:13:39;15.73;;;10.47;;
14584;SDS011;7379;51.506;11.876;2022-12-20T00:16:07;16.37;;;10.73;;
14584;SDS011;7379;51.506;11.876;2022-12-20T00:18:35;15.03;;;10.30;;
14584;SDS011;7379;51.506;11.876;2022-12-20T00:21:04;17.43;;;11.07;;
14584;SDS011;7379;51.506;11.876;2022-12-20T00:23:32;16.73;;;11.13;;
14584;SDS011;7379;51.506;11.876;2022-12-20T00:26:00;15.13;;;10.73;;
14584;SDS011;7379;51.506;11.876;2022-12-20T00:28:28;16.73;;;11.40;;
14584;SDS011;7379;51.506;11.876;2022-12-20T00:30:57;16.83;;;10.80;;
14584;SDS011;7379;51.506;11.876;2022-12-20T00:33:24;15.83;;;10.53;;
14584;SDS011;7379;51.506;11.876;2022-12-20T00:35:51;15.30;;;10.23;;
14584;SDS011;7379;51.506;11.876;2022-12-20T00:38:19;15.50;;;10.90;;
14584;SDS011;7379;51.506;11.876;2022-12-20T00:40:46;16.83;;;11.30;;
14584;SDS011;7379;51.506;11.876;2022-12-20T00:43:13;16.10;;;10.93;;
14584;SDS011;7379;51.506;11.876;2022-12-20T00:45:40;17.63;;;11.27;;
14584;SDS011;7379;51.506;11.876;2022-12-20T00:48:08;16.63;;;10.80;;
14584;SDS011;7379;51.506;11.876;2022-12-20T00:50:35;16.20;;;10.87;;
14584;SDS011;7379;51.506;11.876;2022-12-20T00:53:02;15.63;;;11.23;;
14584;SDS011;7379;51.506;11.876;2022-12-20T00:55:29;15.80;;;10.37;;
14584;SDS011;7379;51.506;11.876;2022-12-20T00:57:56;15.60;;;11.37;;
14584;SDS011;7379;51.506;11.876;2022-12-20T01:00:23;15.13;;;10.47;;
14584;SDS011;7379;51.506;11.876;2022-12-20T01:02:49;15.50;;;11.17;;
14584;SDS011;7379;51.506;11.876;2022-12-20T01:05:17;15.17;;;10.63;;
14584;SDS011;7379;51.506;11.876;2022-12-20T01:07:44;16.20;;;11.23;;
14584;SDS011;7379;51.506;11.876;2022-12-20T01:10:11;14.97;;;10.47;;
14584;SDS011;7379;51.506;11.876;2022-12-20T01:12:38;15.80;;;10.83;;
14584;SDS011;7379;51.506;11.876;2022-12-20T01:15:05;15.47;;;10.90;;
14584;SDS011;7379;51.506;11.876;2022-12-20T01:17:33;15.93;;;10.90;;
14584;SDS011;7379;51.506;11.876;2022-12-20T01:19:59;17.83;;;10.80;;
14584;SDS011;7379;51.506;11.876;2022-12-20T01:22:28;14.87;;;10.10;;
14584;SDS011;7379;51.506;11.876;2022-12-20T01:24:54;14.87;;;10.57;;
14584;SDS011;7379;51.506;11.876;2022-12-20T01:27:21;15.83;;;10.67;;
14584;SDS011;7379;51.506;11.876;2022-12-20T01:29:48;17.63;;;11.03;;
14584;SDS011;7379;51.506;11.876;2022-12-20T01:32:15;16.97;;;11.00;;
14584;SDS011;7379;51.506;11.876;2022-12-20T01:34:42;13.60;;;10.40;;
14584;SDS011;7379;51.506;11.876;2022-12-20T01:37:09;16.20;;;9.80;;
14584;SDS011;7379;51.506;11.876;2022-12-20T01:39:37;13.93;;;10.17;;
14584;SDS011;7379;51.506;11.876;2022-12-20T01:42:04;16.20;;;10.97;;
14584;SDS011;7379;51.506;11.876;2022-12-20T01:44:50;16.73;;;11.03;;
14584;SDS011;7379;51.506;11.876;2022-12-20T01:47:22;16.37;;;10.30;;
14584;SDS011;7379;51.506;11.876;2022-12-20T01:49:51;14.30;;;10.17;;
14584;SDS011;7379;51.506;11.876;2022-12-20T01:52:24;14.23;;;10.63;;
14584;SDS011;7379;51.506;11.876;2022-12-20T01:54:57;15.13;;;10.13;;
14584;SDS011;7379;51.506;11.876;2022-12-20T01:57:30;15.30;;;11.53;;
14584;SDS011;7379;51.506;11.876;2022-12-20T02:00:00;15.10;;;10.30;;
14584;SDS011;7379;51.506;11.876;2022-12-20T02:02:28;15.73;;;10.70;;
14584;SDS011;7379;51.506;11.876;2022-12-20T02:04:57;13.13;;;10.03;;
14584;SDS011;7379;51.506;11.876;2022-12-20T02:07:24;14.40;;;10.07;;
14584;SDS011;7379;51.506;11.876;2022-12-20T02:09:53;15.60;;;10.73;;
14584;SDS011;7379;51.506;11.876;2022-12-20T02:12:24;14.63;;;10.57;;
14584;SDS011;7379;51.506;11.876;2022-12-20T02:14:58;14.07;;;9.90;;
14584;SDS011;7379;51.506;11.876;2022-12-20T02:17:34;14.90;;;10.70;;
14584;SDS011;7379;51.506;11.876;2022-12-20T02:20:21;14.87;;;10.23;;
14584;SDS011;7379;51.506;11.876;2022-12-20T02:23:26;15.80;;;10.70;;
14584;SDS011;7379;51.506;11.876;2022-12-20T02:26:22;15.53;;;10.53;;
14584;SDS011;7379;51.506;11.876;2022-12-20T02:29:05;14.00;;;9.77;;
14584;SDS011;7379;51.506;11.876;2022-12-20T02:31:47;18.80;;;10.70;;
14584;SDS011;7379;51.506;11.876;2022-12-20T02:34:17;15.40;;;10.73;;
14584;SDS011;7379;51.506;11.876;2022-12-20T02:36:48;16.00;;;10.73;;
14584;SDS011;7379;51.506;11.876;2022-12-20T02:39:15;16.93;;;11.37;;
14584;SDS011;7379;51.506;11.876;2022-12-20T02:41:43;15.97;;;10.93;;
14584;SDS011;7379;51.506;11.876;2022-12-20T02:44:13;14.47;;;10.17;;
14584;SDS011;7379;51.506;11.876;2022-12-20T02:47:03;14.53;;;10.33;;
14584;SDS011;7379;51.506;11.876;2022-12-20T02:49:36;15.27;;;10.67;;
14584;SDS011;7379;51.506;11.876;2022-12-20T02:52:06;16.17;;;10.83;;
14584;SDS011;7379;51.506;11.876;2022-12-20T02:54:34;15.20;;;10.57;;
14584;SDS011;7379;51.506;11.876;2022-12-20T02:57:03;16.67;;;10.80;;
14584;SDS011;7379;51.506;11.876;2022-12-20T02:59:36;17.97;;;11.77;;
14584;SDS011;7379;51.506;11.876;2022-12-20T03:02:09;17.70;;;11.63;;
14584;SDS011;7379;51.506;11.876;2022-12-20T03:04:38;15.77;;;10.70;;
14584;SDS011;7379;51.506;11.876;2022-12-20T03:07:07;16.50;;;10.83;;
14584;SDS011;7379;51.506;11.876;2022-12-20T03:09:36;15.50;;;11.00;;
14584;SDS011;7379;51.506;11.876;2022-12-20T03:12:05;16.77;;;10.90;;
14584;SDS011;7379;51.506;11.876;2022-12-20T03:14:32;15.43;;;10.80;;
14584;SDS011;7379;51.506;11.876;2022-12-20T03:16:59;16.47;;;11.13;;
14584;SDS011;7379;51.506;11.876;2022-12-20T03:19:27;14.43;;;10.50;;
14584;SDS011;7379;51.506;11.876;2022-12-20T03:21:54;13.03;;;9.60;;
14584;SDS011;7379;51.506;11.876;2022-12-20T03:24:21;14.33;;;10.30;;
14584;SDS011;7379;51.506;11.876;2022-12-20T03:26:48;15.87;;;10.97;;
14584;SDS011;7379;51.506;11.876;2022-12-20T03:29:14;15.07;;;10.47;;
14584;SDS011;7379;51.506;11.876;2022-12-20T03:31:41;14.80;;;10.53;;
14584;SDS011;7379;51.506;11.876;2022-12-20T03:34:08;14.40;;;9.90;;
14584;SDS011;7379;51.506;11.876;2022-12-20T03:36:36;14.40;;;10.20;;
14584;SDS011;7379;51.506;11.876;2022-12-20T03:39:03;13.60;;;10.30;;
14584;SDS011;7379;51.506;11.876;2022-12-20T03:41:30;13.83;;;10.27;;
14584;SDS011;7379;51.506;11.876;2022-12-20T03:43:57;14.53;;;10.50;;
14584;SDS011;7379;51.506;11.876;2022-12-20T03:46:24;14.27;;;9.77;;
14584;SDS011;7379;51.506;11.876;2022-12-20T03:48:51;14.07;;;10.17;;
14584;SDS011;7379;51.506;11.876;2022-12-20T03:51:18;14.50;;;10.23;;
14584;SDS011;7379;51.506;11.876;2022-12-20T03:53:46;14.53;;;10.23;;
14584;SDS011;7379;51.506;11.876;2022-12-20T03:56:13;14.97;;;10.20;;
14584;SDS011;7379;51.506;11.876;2022-12-20T03:58:41;13.50;;;9.50;;
14584;SDS011;7379;51.506;11.876;2022-12-20T04:01:18;13.63;;;10.00;;
14584;SDS011;7379;51.506;11.876;2022-12-20T04:03:46;14.03;;;10.33;;
14584;SDS011;7379;51.506;11.876;2022-12-20T04:06:13;14.80;;;10.33;;
14584;SDS011;7379;51.506;11.876;2022-12-20T04:08:39;13.43;;;10.00;;
14584;SDS011;7379;51.506;11.876;2022-12-20T04:11:07;16.60;;;10.67;;
14584;SDS011;7379;51.506;11.876;2022-12-20T04:13:43;13.63;;;9.50;;
14584;SDS011;7379;51.506;11.876;2022-12-20T04:16:11;14.53;;;10.20;;
14584;SDS011;7379;51.506;11.876;2022-12-20T04:18:39;14.03;;;9.47;;
14584;SDS011;7379;51.506;11.876;2022-12-20T04:21:06;12.40;;;9.20;;
14584;SDS011;7379;51.506;11.876;2022-12-20T04:23:33;13.27;;;9.43;;
14584;SDS011;7379;51.506;11.876;2022-12-20T04:26:01;14.20;;;9.87;;
14584;SDS011;7379;51.506;11.876;2022-12-20T04:28:30;12.80;;;9.20;;
14584;SDS011;7379;51.506;11.876;2022-12-20T04:30:58;13.10;;;9.20;;
14584;SDS011;7379;51.506;11.876;2022-12-20T04:33:25;12.40;;;8.90;;
14584;SDS011;7379;51.506;11.876;2022-12-20T04:35:52;14.27;;;9.43;;
14584;SDS011;7379;51.506;11.876;2022-12-20T04:38:20;12.77;;;9.23;;
14584;SDS011;7379;51.506;11.876;2022-12-20T04:40:47;15.07;;;9.40;;
14584;SDS011;7379;51.506;11.876;2022-12-20T04:43:15;12.00;;;9.30;;
14584;SDS011;7379;51.506;11.876;2022-12-20T04:45:44;13.77;;;9.63;;
14584;SDS011;7379;51.506;11.876;2022-12-20T04:48:13;12.50;;;8.77;;
14584;SDS011;7379;51.506;11.876;2022-12-20T04:50:40;12.83;;;9.60;;
14584;SDS011;7379;51.506;11.876;2022-12-20T04:53:07;13.30;;;8.93;;
14584;SDS011;7379;51.506;11.876;2022-12-20T04:55:53;12.80;;;9.37;;
14584;SDS011;7379;51.506;11.876;2022-12-20T04:58:20;11.77;;;8.93;;
14584;SDS011;7379;51.506;11.876;2022-12-20T05:00:48;12.90;;;9.00;;
14584;SDS011;7379;51.506;11.876;2022-12-20T05:03:16;13.87;;;9.30;;
14584;SDS011;7379;51.506;11.876;2022-12-20T05:05:43;14.90;;;9.50;;
14584;SDS011;7379;51.506;11.876;2022-12-20T05:08:10;12.20;;;9.53;;
14584;SDS011;7379;51.506;11.876;2022-12-20T05:10:36;13.50;;;9.30;;
14584;SDS011;7379;51.506;11.876;2022-12-20T05:13:03;13.80;;;9.17;;
14584;SDS011;7379;51.506;11.876;2022-12-20T05:15:30;13.53;;;9.00;;
14584;SDS011;7379;51.506;11.876;2022-12-20T05:17:58;13.23;;;9.00;;
14584;SDS011;7379;51.506;11.876;2022-12-20T05:20:26;11.60;;;8.67;;
14584;SDS011;7379;51.506;11.876;2022-12-20T05:22:53;11.87;;;9.03;;
14584;SDS011;7379;51.506;11.876;2022-12-20T05:25:37;11.77;;;8.50;;
14584;SDS011;7379;51.506;11.876;2022-12-20T05:28:22;11.50;;;8.70;;
14584;SDS011;7379;51.506;11.876;2022-12-20T05:30:49;12.00;;;8.37;;
14584;SDS011;7379;51.506;11.876;2022-12-20T05:33:17;12.17;;;8.17;;
14584;SDS011;7379;51.506;11.876;2022-12-20T05:35:44;12.87;;;8.87;;
14584;SDS011;7379;51.506;11.876;2022-12-20T05:38:11;12.03;;;8.77;;
14584;SDS011;7379;51.506;11.876;2022-12-20T05:40:38;10.90;;;8.70;;
14584;SDS011;7379;51.506;11.876;2022-12-20T05:43:05;12.30;;;8.17;;
14584;SDS011;7379;51.506;11.876;2022-12-20T05:45:32;11.13;;;8.20;;
14584;SDS011;7379;51.506;11.876;2022-12-20T05:48:00;11.33;;;8.10;;
14584;SDS011;7379;51.506;11.876;2022-12-20T05:50:28;11.83;;;8.43;;
14584;SDS011;7379;51.506;11.876;2022-12-20T05:52:55;12.73;;;8.60;;
14584;SDS011;7379;51.506;11.876;2022-12-20T05:55:22;12.27;;;8.80;;
14584;SDS011;7379;51.506;11.876;2022-12-20T05:57:49;12.87;;;8.77;;
14584;SDS011;7379;51.506;11.876;2022-12-20T06:00:15;11.33;;;8.23;;
14584;SDS011;7379;51.506;11.876;2022-12-20T06:02:42;11.97;;;8.27;;
14584;SDS011;7379;51.506;11.876;2022-12-20T06:05:09;12.43;;;8.50;;
14584;SDS011;7379;51.506;11.876;2022-12-20T06:07:37;11.70;;;8.70;;
14584;SDS011;7379;51.506;11.876;2022-12-20T06:10:05;11.00;;;8.70;;
14584;SDS011;7379;51.506;11.876;2022-12-20T06:12:33;12.87;;;9.23;;
14584;SDS011;7379;51.506;11.876;2022-12-20T06:15:00;12.43;;;9.20;;
14584;SDS011;7379;51.506;11.876;2022-12-20T06:17:26;13.53;;;9.47;;
14584;SDS011;7379;51.506;11.876;2022-12-20T06:19:53;12.87;;;9.30;;
14584;SDS011;7379;51.506;11.876;2022-12-20T06:22:20;13.83;;;9.73;;
14584;SDS011;7379;51.506;11.876;2022-12-20T06:24:49;11.90;;;9.70;;
14584;SDS011;7379;51.506;11.876;2022-12-20T06:27:15;12.87;;;9.47;;
14584;SDS011;7379;51.506;11.876;2022-12-20T06:29:43;12.87;;;10.17;;
14584;SDS011;7379;51.506;11.876;2022-12-20T06:32:15;12.87;;;9.90;;
14584;SDS011;7379;51.506;11.876;2022-12-20T06:34:42;13.40;;;9.77;;
14584;SDS011;7379;51.506;11.876;2022-12-20T06:37:09;14.50;;;9.77;;
14584;SDS011;7379;51.506;11.876;2022-12-20T06:39:36;13.63;;;10.33;;
14584;SDS011;7379;51.506;11.876;2022-12-20T06:42:04;13.50;;;9.90;;
14584;SDS011;7379;51.506;11.876;2022-12-20T06:44:31;14.10;;;10.00;;
14584;SDS011;7379;51.506;11.876;2022-12-20T06:46:58;16.57;;;10.07;;
14584;SDS011;7379;51.506;11.876;2022-12-20T06:49:24;13.37;;;9.33;;
14584;SDS011;7379;51.506;11.876;2022-12-20T06:51:51;13.67;;;9.77;;
14584;SDS011;7379;51.506;11.876;2022-12-20T06:54:18;15.43;;;10.03;;
14584;SDS011;7379;51.506;11.876;2022-12-20T06:56:45;14.07;;;9.83;;
14584;SDS011;7379;51.506;11.876;2022-12-20T06:59:13;13.10;;;9.67;;
14584;SDS011;7379;51.506;11.876;2022-12-20T07:01:39;12.87;;;9.43;;
14584;SDS011;7379;51.506;11.876;2022-12-20T07:04:06;15.80;;;10.53;;
14584;SDS011;7379;51.506;11.876;2022-12-20T07:06:33;13.00;;;10.13;;
14584;SDS011;7379;51.506;11.876;2022-12-20T07:09:00;13.07;;;9.47;;
14584;SDS011;7379;51.506;11.876;2022-12-20T07:11:27;13.00;;;9.37;;
14584;SDS011;7379;51.506;11.876;2022-12-20T07:13:54;14.27;;;9.90;;
14584;SDS011;7379;51.506;11.876;2022-12-20T07:16:23;13.87;;;9.37;;
14584;SDS011;7379;51.506;11.876;2022-12-20T07:18:50;13.50;;;9.57;;
14584;SDS011;7379;51.506;11.876;2022-12-20T07:21:18;14.97;;;10.13;;
14584;SDS011;7379;51.506;11.876;2022-12-20T07:23:45;13.63;;;9.20;;
14584;SDS011;7379;51.506;11.876;2022-12-20T07:26:13;14.00;;;9.50;;
14584;SDS011;7379;51.506;11.876;2022-12-20T07:28:40;12.43;;;9.17;;
14584;SDS011;7379;51.506;11.876;2022-12-20T07:31:07;12.67;;;9.47;;
14584;SDS011;7379;51.506;11.876;2022-12-20T07:33:36;13.67;;;9.80;;
14584;SDS011;7379;51.506;11.876;2022-12-20T07:36:03;12.77;;;9.80;;
14584;SDS011;7379;51.506;11.876;2022-12-20T07:38:31;11.77;;;9.60;;
14584;SDS011;7379;51.506;11.876;2022-12-20T07:40:59;13.00;;;9.80;;
14584;SDS011;7379;51.506;11.876;2022-12-20T07:43:26;12.53;;;9.47;;
14584;SDS011;7379;51.506;11.876;2022-12-20T07:45:53;13.60;;;9.77;;
14584;SDS011;7379;51.506;11.876;2022-12-20T07:48:21;13.60;;;10.20;;
14584;SDS011;7379;51.506;11.876;2022-12-20T07:50:49;13.60;;;9.70;;
14584;SDS011;7379;51.506;11.876;2022-12-20T07:53:17;12.97;;;9.70;;
14584;SDS011;7379;51.506;11.876;2022-12-20T07:55:45;15.00;;;9.80;;
14584;SDS011;7379;51.506;11.876;2022-12-20T07:58:13;13.27;;;9.60;;
14584;SDS011;7379;51.506;11.876;2022-12-20T08:00:42;12.03;;;9.37;;
14584;SDS011;7379;51.506;11.876;2022-12-20T08:03:11;12.73;;;9.60;;
14584;SDS011;7379;51.506;11.876;2022-12-20T08:05:42;14.13;;;9.43;;
14584;SDS011;7379;51.506;11.876;2022-12-20T08:08:13;14.10;;;9.57;;
14584;SDS011;7379;51.506;11.876;2022-12-20T08:10:41;13.53;;;10.20;;
14584;SDS011;7379;51.506;11.876;2022-12-20T08:13:08;13.67;;;9.53;;
14584;SDS011;7379;51.506;11.876;2022-12-20T08:15:35;13.53;;;9.33;;
14584;SDS011;7379;51.506;11.876;2022-12-20T08:18:02;12.23;;;9.50;;
14584;SDS011;7379;51.506;11.876;2022-12-20T08:20:30;12.70;;;9.37;;
14584;SDS011;7379;51.506;11.876;2022-12-20T08:22:57;12.17;;;9.43;;
14584;SDS011;7379;51.506;11.876;2022-12-20T08:25:25;16.13;;;9.83;;
14584;SDS011;7379;51.506;11.876;2022-12-20T08:27:52;12.47;;;9.13;;
14584;SDS011;7379;51.506;11.876;2022-12-20T08:30:18;14.93;;;10.23;;
14584;SDS011;7379;51.506;11.876;2022-12-20T08:32:45;11.10;;;8.73;;
14584;SDS011;7379;51.506;11.876;2022-12-20T08:35:12;11.87;;;9.13;;
14584;SDS011;7379;51.506;11.876;2022-12-20T08:37:39;11.30;;;9.27;;
14584;SDS011;7379;51.506;11.876;2022-12-20T08:40:06;12.20;;;9.33;;
14584;SDS011;7379;51.506;11.876;2022-12-20T08:42:35;12.20;;;9.03;;
14584;SDS011;7379;51.506;11.876;2022-12-20T08:45:02;12.63;;;9.73;;
14584;SDS011;7379;51.506;11.876;2022-12-20T08:47:30;14.60;;;9.87;;
14584;SDS011;7379;51.506;11.876;2022-12-20T08:49:56;12.33;;;9.23;;
14584;SDS011;7379;51.506;11.876;2022-12-20T08:52:23;13.00;;;9.80;;
14584;SDS011;7379;51.506;11.876;2022-12-20T08:54:50;13.33;;;9.47;;
14584;SDS011;7379;51.506;11.876;2022-12-20T08:57:17;13.80;;;9.50;;
14584;SDS011;7379;51.506;11.876;2022-12-20T08:59:45;12.90;;;9.43;;
14584;SDS011;7379;51.506;11.876;2022-12-20T09:02:12;12.30;;;9.63;;
14584;SDS011;7379;51.506;11.876;2022-12-20T09:04:39;12.53;;;9.47;;
14584;SDS011;7379;51.506;11.876;2022-12-20T09:07:06;12.77;;;9.30;;
14584;SDS011;7379;51.506;11.876;2022-12-20T09:09:33;12.50;;;9.40;;
14584;SDS011;7379;51.506;11.876;2022-12-20T09:11:59;11.80;;;9.40;;
14584;SDS011;7379;51.506;11.876;2022-12-20T09:14:26;15.00;;;9.97;;
14584;SDS011;7379;51.506;11.876;2022-12-20T09:16:54;12.17;;;9.40;;
14584;SDS011;7379;51.506;11.876;2022-12-20T09:19:21;12.60;;;9.33;;
14584;SDS011;7379;51.506;11.876;2022-12-20T09:21:48;12.70;;;9.13;;
14584;SDS011;7379;51.506;11.876;2022-12-20T09:24:15;13.17;;;9.17;;
14584;SDS011;7379;51.506;11.876;2022-12-20T09:26:42;11.97;;;8.80;;
14584;SDS011;7379;51.506;11.876;2022-12-20T09:29:08;11.50;;;8.93;;
14584;SDS011;7379;51.506;11.876;2022-12-20T09:31:35;12.10;;;9.47;;
14584;SDS011;7379;51.506;11.876;2022-12-20T09:34:03;12.23;;;9.40;;
14584;SDS011;7379;51.506;11.876;2022-12-20T09:36:30;14.03;;;9.63;;
14584;SDS011;7379;51.506;11.876;2022-12-20T09:38:57;12.50;;;9.43;;
14584;SDS011;7379;51.506;11.876;2022-12-20T09:41:25;12.27;;;9.60;;
14584;SDS011;7379;51.506;11.876;2022-12-20T09:43:54;13.33;;;9.80;;
14584;SDS011;7379;51.506;11.876;2022-12-20T09:46:23;14.03;;;10.03;;
14584;SDS011;7379;51.506;11.876;2022-12-20T09:48:51;12.70;;;9.63;;
14584;SDS011;7379;51.506;11.876;2022-12-20T09:51:28;12.30;;;9.60;;
14584;SDS011;7379;51.506;11.876;2022-12-20T09:54:14;13.10;;;9.90;;
14584;SDS011;7379;51.506;11.876;2022-12-20T09:56:49;15.20;;;10.17;;
14584;SDS011;7379;51.506;11.876;2022-12-20T09:59:22;13.37;;;9.70;;
14584;SDS011;7379;51.506;11.876;2022-12-20T10:01:49;14.27;;;10.30;;
14584;SDS011;7379;51.506;11.876;2022-12-20T10:04:19;13.13;;;10.37;;
14584;SDS011;7379;51.506;11.876;2022-12-20T10:06:52;14.27;;;10.33;;
14584;SDS011;7379;51.506;11.876;2022-12-20T10:12:32;16.07;;;10.87;;
14584;SDS011;7379;51.506;11.876;2022-12-20T10:15:13;16.17;;;11.37;;
14584;SDS011;7379;51.506;11.876;2022-12-20T10:17:57;16.03;;;11.00;;
14584;SDS011;7379;51.506;11.876;2022-12-20T10:20:40;15.53;;;10.80;;
14584;SDS011;7379;51.506;11.876;2022-12-20T10:23:20;14.33;;;11.33;;
14584;SDS011;7379;51.506;11.876;2022-12-20T10:25:52;14.33;;;10.90;;
14584;SDS011;7379;51.506;11.876;2022-12-20T10:28:22;14.60;;;11.97;;
14584;SDS011;7379;51.506;11.876;2022-12-20T10:30:52;15.80;;;11.50;;
14584;SDS011;7379;51.506;11.876;2022-12-20T10:33:20;15.93;;;11.33;;
14584;SDS011;7379;51.506;11.876;2022-12-20T10:35:48;16.43;;;11.60;;
14584;SDS011;7379;51.506;11.876;2022-12-20T10:38:16;15.80;;;12.23;;
14584;SDS011;7379;51.506;11.876;2022-12-20T10:40:46;23.10;;;13.67;;
14584;SDS011;7379;51.506;11.876;2022-12-20T10:43:24;17.40;;;12.67;;
14584;SDS011;7379;51.506;11.876;2022-12-20T10:45:55;17.77;;;13.17;;
14584;SDS011;7379;51.506;11.876;2022-12-20T10:48:30;17.43;;;12.63;;
14584;SDS011;7379;51.506;11.876;2022-12-20T10:50:59;16.10;;;12.27;;
14584;SDS011;7379;51.506;11.876;2022-12-20T10:53:27;16.60;;;12.40;;
14584;SDS011;7379;51.506;11.876;2022-12-20T10:56:08;19.87;;;12.83;;
14584;SDS011;7379;51.506;11.876;2022-12-20T10:58:41;15.57;;;11.30;;
14584;SDS011;7379;51.506;11.876;2022-12-20T11:01:17;17.07;;;12.27;;
14584;SDS011;7379;51.506;11.876;2022-12-20T11:03:49;16.73;;;11.60;;
14584;SDS011;7379;51.506;11.876;2022-12-20T11:06:18;16.37;;;12.33;;
14584;SDS011;7379;51.506;11.876;2022-12-20T11:08:46;16.03;;;11.43;;
14584;SDS011;7379;51.506;11.876;2022-12-20T11:11:16;18.20;;;11.53;;
14584;SDS011;7379;51.506;11.876;2022-12-20T11:13:45;15.63;;;11.40;;
14584;SDS011;7379;51.506;11.876;2022-12-20T11:16:23;15.43;;;11.37;;
14584;SDS011;7379;51.506;11.876;2022-12-20T11:18:55;15.93;;;11.93;;
14584;SDS011;7379;51.506;11.876;2022-12-20T11:21:32;16.00;;;11.20;;
14584;SDS011;7379;51.506;11.876;2022-12-20T11:24:09;14.07;;;10.97;;
14584;SDS011;7379;51.506;11.876;2022-12-20T11:26:44;16.20;;;11.60;;
14584;SDS011;7379;51.506;11.876;2022-12-20T11:29:23;16.03;;;11.57;;
14584;SDS011;7379;51.506;11.876;2022-12-20T11:32:02;14.30;;;11.33;;
14584;SDS011;7379;51.506;11.876;2022-12-20T11:34:38;15.80;;;11.47;;
14584;SDS011;7379;51.506;11.876;2022-12-20T11:40:03;14.70;;;10.77;;
14584;SDS011;7379;51.506;11.876;2022-12-20T11:42:47;13.80;;;10.87;;
14584;SDS011;7379;51.506;11.876;2022-12-20T11:45:24;15.97;;;11.70;;
14584;SDS011;7379;51.506;11.876;2022-12-20T11:48:01;13.63;;;11.37;;
14584;SDS011;7379;51.506;11.876;2022-12-20T11:50:52;13.93;;;10.57;;
14584;SDS011;7379;51.506;11.876;2022-12-20T11:53:31;15.93;;;11.30;;
14584;SDS011;7379;51.506;11.876;2022-12-20T11:56:02;15.60;;;11.53;;
14584;SDS011;7379;51.506;11.876;2022-12-20T11:58:39;15.33;;;11.03;;
14584;SDS011;7379;51.506;11.876;2022-12-20T12:01:12;14.57;;;11.53;;
14584;SDS011;7379;51.506;11.876;2022-12-20T12:03:42;15.13;;;11.50;;
14584;SDS011;7379;51.506;11.876;2022-12-20T12:06:19;14.93;;;11.30;;
14584;SDS011;7379;51.506;11.876;2022-12-20T12:08:52;15.00;;;11.70;;
14584;SDS011;7379;51.506;11.876;2022-12-20T12:11:23;16.70;;;11.53;;
14584;SDS011;7379;51.506;11.876;2022-12-20T12:13:53;15.60;;;11.47;;
14584;SDS011;7379;51.506;11.876;2022-12-20T12:16:23;14.63;;;11.40;;
14584;SDS011;7379;51.506;11.876;2022-12-20T12:18:52;14.53;;;10.93;;
14584;SDS011;7379;51.506;11.876;2022-12-20T12:21:21;17.13;;;11.83;;
14584;SDS011;7379;51.506;11.876;2022-12-20T12:23:53;16.40;;;11.57;;
14584;SDS011;7379;51.506;11.876;2022-12-20T12:26:27;14.93;;;11.50;;
14584;SDS011;7379;51.506;11.876;2022-12-20T12:29:09;15.43;;;11.97;;
14584;SDS011;7379;51.506;11.876;2022-12-20T12:31:39;16.43;;;11.93;;
14584;SDS011;7379;51.506;11.876;2022-12-20T12:34:26;16.10;;;11.43;;
14584;SDS011;7379;51.506;11.876;2022-12-20T12:37:13;16.63;;;11.47;;
14584;SDS011;7379;51.506;11.876;2022-12-20T12:39:59;15.80;;;12.07;;
14584;SDS011;7379;51.506;11.876;2022-12-20T12:45:43;14.03;;;10.97;;
14584;SDS011;7379;51.506;11.876;2022-12-20T12:48:13;14.83;;;11.30;;
14584;SDS011;7379;51.506;11.876;2022-12-20T12:50:44;17.53;;;12.33;;
14584;SDS011;7379;51.506;11.876;2022-12-20T12:53:13;14.23;;;11.13;;
14584;SDS011;7379;51.506;11.876;2022-12-20T12:55:43;16.90;;;11.63;;
14584;SDS011;7379;51.506;11.876;2022-12-20T12:58:12;14.77;;;11.50;;
14584;SDS011;7379;51.506;11.876;2022-12-20T13:01:05;15.37;;;11.30;;
14584;SDS011;7379;51.506;11.876;2022-12-20T13:03:36;17.07;;;11.63;;
14584;SDS011;7379;51.506;11.876;2022-12-20T13:09:15;15.63;;;11.37;;
14584;SDS011;7379;51.506;11.876;2022-12-20T13:11:46;14.93;;;11.20;;
14584;SDS011;7379;51.506;11.876;2022-12-20T13:20:22;15.67;;;11.47;;
14584;SDS011;7379;51.506;11.876;2022-12-20T13:25:42;17.10;;;12.43;;
14584;SDS011;7379;51.506;11.876;2022-12-20T13:31:30;16.90;;;11.60;;
14584;SDS011;7379;51.506;11.876;2022-12-20T13:33:59;14.47;;;11.67;;
14584;SDS011;7379;51.506;11.876;2022-12-20T13:36:37;16.90;;;11.90;;
14584;SDS011;7379;51.506;11.876;2022-12-20T13:42:15;16.27;;;12.23;;
14584;SDS011;7379;51.506;11.876;2022-12-20T13:44:51;16.23;;;11.97;;
14584;SDS011;7379;51.506;11.876;2022-12-20T13:47:31;14.80;;;11.37;;
14584;SDS011;7379;51.506;11.876;2022-12-20T13:50:21;15.67;;;12.00;;
14584;SDS011;7379;51.506;11.876;2022-12-20T13:53:00;16.67;;;11.40;;
14584;SDS011;7379;51.506;11.876;2022-12-20T13:55:32;16.03;;;11.93;;
14584;SDS011;7379;51.506;11.876;2022-12-20T13:58:12;15.70;;;11.20;;
14584;SDS011;7379;51.506;11.876;2022-12-20T14:00:41;15.70;;;11.83;;
14584;SDS011;7379;51.506;11.876;2022-12-20T14:03:12;14.20;;;11.00;;
14584;SDS011;7379;51.506;11.876;2022-12-20T14:05:46;18.10;;;11.63;;
14584;SDS011;7379;51.506;11.876;2022-12-20T14:08:16;15.83;;;11.57;;
14584;SDS011;7379;51.506;11.876;2022-12-20T14:10:46;16.13;;;11.93;;
14584;SDS011;7379;51.506;11.876;2022-12-20T14:13:16;15.73;;;11.13;;
14584;SDS011;7379;51.506;11.876;2022-12-20T14:15:46;18.07;;;12.30;;
14584;SDS011;7379;51.506;11.876;2022-12-20T14:18:15;15.27;;;11.17;;
14584;SDS011;7379;51.506;11.876;2022-12-20T14:20:43;14.87;;;11.40;;
14584;SDS011;7379;51.506;11.876;2022-12-20T14:23:13;15.47;;;10.90;;
14584;SDS011;7379;51.506;11.876;2022-12-20T14:25:45;13.97;;;10.80;;
14584;SDS011;7379;51.506;11.876;2022-12-20T14:28:17;16.77;;;11.33;;
14584;SDS011;7379;51.506;11.876;2022-12-20T14:30:52;13.70;;;10.77;;
14584;SDS011;7379;51.506;11.876;2022-12-20T14:33:20;14.30;;;11.10;;
14584;SDS011;7379;51.506;11.876;2022-12-20T14:35:53;16.13;;;11.37;;
14584;SDS011;7379;51.506;11.876;2022-12-20T14:38:22;14.83;;;11.27;;
14584;SDS011;7379;51.506;11.876;2022-12-20T14:40:50;17.20;;;11.80;;
14584;SDS011;7379;51.506;11.876;2022-12-20T14:46:05;15.73;;;11.50;;
14584;SDS011;7379;51.506;11.876;2022-12-20T14:48:43;15.03;;;11.80;;
14584;SDS011;7379;51.506;11.876;2022-12-20T14:51:10;16.60;;;11.67;;
14584;SDS011;7379;51.506;11.876;2022-12-20T14:53:40;13.67;;;10.77;;
14584;SDS011;7379;51.506;11.876;2022-12-20T14:56:12;14.17;;;10.43;;
14584;SDS011;7379;51.506;11.876;2022-12-20T14:58:40;15.70;;;11.67;;
14584;SDS011;7379;51.506;11.876;2022-12-20T15:01:16;14.17;;;10.47;;
14584;SDS011;7379;51.506;11.876;2022-12-20T15:03:48;14.57;;;10.80;;
14584;SDS011;7379;51.506;11.876;2022-12-20T15:06:29;14.57;;;10.33;;
14584;SDS011;7379;51.506;11.876;2022-12-20T15:08:59;15.57;;;11.10;;
14584;SDS011;7379;51.506;11.876;2022-12-20T15:11:26;15.50;;;11.20;;
14584;SDS011;7379;51.506;11.876;2022-12-20T15:13:53;14.53;;;10.73;;